createdAt,value
2023-04-10T00:00:38.310Z,50.25
2023-04-10T00:03:06.158Z,21.77
2023-04-10T00:05:33.438Z,25.20
2023-04-10T00:08:01.071Z,28.52
2023-04-10T00:10:30.461Z,10.55
2023-04-10T00:12:59.269Z,7.88
2023-04-10T00:15:26.634Z,10.25
2023-04-10T00:17:55.424Z,7.63
2023-04-10T00:20:23.506Z,9.57
2023-04-10T00:22:50.596Z,12.73
2023-04-10T00:25:17.832Z,9.70
2023-04-10T00:27:44.869Z,10.10
2023-04-10T00:30:11.965Z,10.27
2023-04-10T00:32:38.977Z,6.82
2023-04-10T00:35:08.143Z,6.50
2023-04-10T00:37:35.795Z,7.35
2023-04-10T00:40:03.464Z,9.05
2023-04-10T00:42:30.766Z,7.68
2023-04-10T00:44:57.909Z,6.57
2023-04-10T00:47:26.218Z,11.25
2023-04-10T00:49:53.826Z,11.43
2023-04-10T00:52:20.916Z,9.90
2023-04-10T00:54:48.233Z,10.43
2023-04-10T00:57:15.634Z,10.98
2023-04-10T00:59:42.720Z,9.02
2023-04-10T01:02:13.145Z,7.82
2023-04-10T01:04:41.026Z,9.30
2023-04-10T01:07:48.955Z,7.60
2023-04-10T01:10:26.441Z,7.03
2023-04-10T01:13:23.271Z,8.98
2023-04-10T01:16:06.490Z,8.73
2023-04-10T01:18:46.767Z,7.55
2023-04-10T01:21:15.946Z,8.35
2023-04-10T01:23:57.895Z,10.30
2023-04-10T01:27:21.957Z,6.55
2023-04-10T01:29:56.574Z,6.00
2023-04-10T01:32:24.915Z,7.47
2023-04-10T01:34:55.874Z,6.60
2023-04-10T01:37:28.093Z,9.00
2023-04-10T01:42:31.484Z,8.07
2023-04-10T01:45:00.883Z,5.35
2023-04-10T01:47:29.094Z,10.80
2023-04-10T01:49:58.834Z,7.53
2023-04-10T01:52:27.202Z,9.70
2023-04-10T01:55:08.175Z,9.38
2023-04-10T01:57:42.813Z,7.95
2023-04-10T02:00:10.883Z,13.57
2023-04-10T02:02:44.693Z,7.45
2023-04-10T02:05:12.015Z,7.68
2023-04-10T02:08:00.666Z,6.60
2023-04-10T02:10:46.151Z,7.18
2023-04-10T02:13:16.250Z,11.95
2023-04-10T02:15:46.640Z,6.47
2023-04-10T02:18:17.016Z,5.22
2023-04-10T02:20:44.629Z,10.90
2023-04-10T02:23:16.203Z,6.20
2023-04-10T02:25:43.374Z,7.65
2023-04-10T02:28:10.606Z,7.65
2023-04-10T02:30:39.240Z,8.02
2023-04-10T02:33:06.405Z,8.90
2023-04-10T02:35:34.271Z,5.78
2023-04-10T02:38:03.331Z,7.53
2023-04-10T02:40:33.866Z,13.18
2023-04-10T02:43:12.760Z,8.23
2023-04-10T02:45:41.728Z,7.88
2023-04-10T02:48:14.073Z,7.28
2023-04-10T02:50:46.076Z,7.82
2023-04-10T02:53:16.965Z,8.55
2023-04-10T02:55:44.058Z,7.70
2023-04-10T02:58:13.854Z,9.70
2023-04-10T03:00:42.100Z,9.35
2023-04-10T03:03:17.292Z,9.52
2023-04-10T03:05:51.781Z,7.47
2023-04-10T03:08:24.502Z,6.75
2023-04-10T03:10:51.591Z,8.23
2023-04-10T03:13:18.898Z,7.60
2023-04-10T03:15:45.938Z,7.18
2023-04-10T03:18:13.251Z,7.25
2023-04-10T03:20:45.054Z,6.07
2023-04-10T03:23:12.512Z,6.28
2023-04-10T03:25:39.490Z,6.03
2023-04-10T03:28:08.251Z,5.82
2023-04-10T03:30:37.129Z,6.60
2023-04-10T03:33:04.373Z,5.40
2023-04-10T03:35:31.681Z,10.23
2023-04-10T03:37:59.985Z,6.80
2023-04-10T03:40:27.454Z,9.63
2023-04-10T03:42:54.495Z,10.32
2023-04-10T03:45:21.582Z,5.90
2023-04-10T03:47:48.613Z,7.38
2023-04-10T03:50:16.504Z,8.10
2023-04-10T03:52:52.158Z,8.05
2023-04-10T03:55:22.749Z,10.55
2023-04-10T03:57:51.360Z,6.70
2023-04-10T04:00:22.106Z,8.15
2023-04-10T04:02:53.029Z,7.32
2023-04-10T04:05:46.055Z,7.20
2023-04-10T04:08:45.510Z,6.78
2023-04-10T04:11:36.262Z,7.43
2023-04-10T04:14:07.610Z,8.35
2023-04-10T04:16:47.722Z,5.13
2023-04-10T04:19:33.539Z,7.32
2023-04-10T04:22:09.717Z,8.07
2023-04-10T04:24:56.901Z,8.02
2023-04-10T04:27:50.721Z,9.73
2023-04-10T04:30:41.743Z,13.57
2023-04-10T04:33:18.439Z,6.93
2023-04-10T04:36:20.924Z,8.80
2023-04-10T04:38:54.746Z,7.72
2023-04-10T04:41:40.238Z,8.90
2023-04-10T04:44:15.997Z,6.43
2023-04-10T04:47:00.781Z,7.25
2023-04-10T04:49:46.652Z,8.15
2023-04-10T04:52:25.694Z,6.93
2023-04-10T04:55:19.069Z,8.95
2023-04-10T04:58:21.318Z,6.40
2023-04-10T05:01:11.065Z,6.03
2023-04-10T05:04:01.319Z,8.27
2023-04-10T05:06:39.446Z,10.05
2023-04-10T05:09:38.757Z,8.05
2023-04-10T05:12:20.904Z,7.57
2023-04-10T05:15:03.483Z,7.70
2023-04-10T05:17:37.806Z,8.75
2023-04-10T05:20:23.449Z,6.68
2023-04-10T05:23:17.511Z,8.35
2023-04-10T05:26:16.640Z,7.82
2023-04-10T05:28:57.317Z,7.28
2023-04-10T05:31:30.495Z,7.10
2023-04-10T05:34:19.934Z,7.18
2023-04-10T05:37:07.162Z,10.30
2023-04-10T05:40:00.072Z,6.18
2023-04-10T05:42:27.314Z,9.23
2023-04-10T05:45:09.249Z,5.95
2023-04-10T05:47:41.041Z,7.32
2023-04-10T05:50:29.971Z,6.43
2023-04-10T05:53:20.240Z,7.40
2023-04-10T05:56:24.646Z,7.03
2023-04-10T05:58:54.782Z,9.27
2023-04-10T06:01:47.252Z,8.23
2023-04-10T06:04:15.887Z,6.85
2023-04-10T06:06:43.891Z,8.38
2023-04-10T06:09:24.883Z,7.35
2023-04-10T06:11:52.208Z,8.02
2023-04-10T06:14:23.150Z,7.20
2023-04-10T06:16:50.472Z,9.63
2023-04-10T06:19:17.493Z,7.22
2023-04-10T06:21:44.697Z,6.80
2023-04-10T06:24:14.190Z,11.80
2023-04-10T06:26:41.280Z,9.77
2023-04-10T06:29:10.594Z,12.52
2023-04-10T06:31:38.131Z,9.18
2023-04-10T06:34:05.398Z,8.55
2023-04-10T06:36:35.089Z,10.88
2023-04-10T06:39:06.693Z,7.90
2023-04-10T06:41:33.993Z,11.55
2023-04-10T06:44:15.811Z,12.30
2023-04-10T06:46:42.902Z,11.15
2023-04-10T06:49:10.453Z,7.18
2023-04-10T06:51:37.786Z,8.73
2023-04-10T06:54:04.924Z,10.13
2023-04-10T06:56:32.144Z,7.63
2023-04-10T06:58:59.176Z,7.32
2023-04-10T07:01:26.612Z,7.35
2023-04-10T07:03:53.829Z,7.53
2023-04-10T07:06:21.316Z,8.85
2023-04-10T07:08:51.592Z,7.15
2023-04-10T07:11:18.661Z,6.28
2023-04-10T07:13:46.068Z,5.18
2023-04-10T07:16:13.198Z,8.40
2023-04-10T07:18:41.565Z,10.85
2023-04-10T07:21:13.272Z,6.78
2023-04-10T07:23:41.144Z,7.90
2023-04-10T07:26:08.177Z,6.45
2023-04-10T07:28:35.311Z,5.30
2023-04-10T07:31:02.425Z,5.80
2023-04-10T07:33:29.676Z,7.07
2023-04-10T07:35:56.928Z,7.38
2023-04-10T07:38:24.696Z,11.05
2023-04-10T07:41:01.315Z,7.22
2023-04-10T07:43:28.337Z,7.00
2023-04-10T07:45:57.504Z,6.85
2023-04-10T07:48:25.043Z,5.68
2023-04-10T07:50:52.152Z,5.25
2023-04-10T07:53:19.824Z,5.55
2023-04-10T07:55:48.829Z,5.50
2023-04-10T07:58:16.480Z,9.82
2023-04-10T08:00:43.582Z,4.70
2023-04-10T08:03:13.225Z,6.38
2023-04-10T08:05:40.799Z,8.48
2023-04-10T08:08:07.768Z,6.72
2023-04-10T08:10:38.457Z,7.47
2023-04-10T08:13:06.335Z,5.50
2023-04-10T08:15:33.689Z,5.82
2023-04-10T08:18:00.912Z,5.15
2023-04-10T08:20:28.482Z,5.93
2023-04-10T08:22:58.934Z,4.60
2023-04-10T08:25:31.258Z,7.63
2023-04-10T08:28:00.457Z,4.72
2023-04-10T08:30:27.456Z,4.72
2023-04-10T08:32:54.517Z,4.53
2023-04-10T08:35:21.627Z,5.10
2023-04-10T08:37:53.616Z,5.68
2023-04-10T08:40:29.530Z,6.18
2023-04-10T08:42:56.627Z,5.28
2023-04-10T08:45:23.637Z,4.43
2023-04-10T08:47:53.322Z,4.70
2023-04-10T08:50:20.750Z,4.65
2023-04-10T08:52:52.982Z,3.00
2023-04-10T08:57:54.347Z,3.88
2023-04-10T09:00:29.042Z,5.90
2023-04-10T09:05:45.492Z,5.30
2023-04-10T09:08:15.651Z,6.05
2023-04-10T09:10:43.156Z,6.10
2023-04-10T09:13:10.320Z,3.72
2023-04-10T09:15:58.308Z,4.97
2023-04-10T09:18:48.875Z,4.68
2023-04-10T09:21:19.712Z,4.00
2023-04-10T09:23:48.751Z,4.57
2023-04-10T09:26:31.705Z,4.10
2023-04-10T09:29:02.803Z,4.85
2023-04-10T09:31:40.159Z,2.72
2023-04-10T09:34:12.375Z,3.08
2023-04-10T09:36:43.883Z,4.38
2023-04-10T09:39:12.623Z,5.65
2023-04-10T09:41:53.118Z,3.42
2023-04-10T09:44:33.151Z,4.47
2023-04-10T09:47:18.435Z,4.63
2023-04-10T09:49:53.636Z,3.13
2023-04-10T09:52:27.222Z,3.53
2023-04-10T09:54:59.509Z,4.05
2023-04-10T09:57:31.903Z,10.38
2023-04-10T10:00:04.085Z,5.28
2023-04-10T10:02:39.205Z,3.25
2023-04-10T10:05:07.910Z,4.28
2023-04-10T10:07:35.825Z,3.03
2023-04-10T10:10:04.043Z,6.00
2023-04-10T10:12:48.334Z,5.55
2023-04-10T10:15:28.213Z,4.25
2023-04-10T10:18:26.643Z,2.33
2023-04-10T10:20:54.229Z,1.55
2023-04-10T10:23:22.583Z,2.22
2023-04-10T10:25:50.498Z,4.30
2023-04-10T10:28:20.693Z,3.90
2023-04-10T10:30:49.859Z,4.30
2023-04-10T10:33:17.942Z,3.25
2023-04-10T10:35:45.385Z,6.03
2023-04-10T10:38:12.992Z,3.40
2023-04-10T10:40:57.897Z,3.17
2023-04-10T10:43:38.169Z,2.53
2023-04-10T10:46:15.105Z,2.72
2023-04-10T10:48:59.511Z,2.30
2023-04-10T10:51:51.023Z,3.22
2023-04-10T10:54:38.880Z,1.73
2023-04-10T10:57:48.632Z,3.08
2023-04-10T11:00:16.969Z,2.33
2023-04-10T11:02:44.620Z,4.40
2023-04-10T11:05:54.257Z,3.67
2023-04-10T11:08:47.268Z,2.50
2023-04-10T11:11:23.581Z,1.58
2023-04-10T11:13:53.376Z,3.28
2023-04-10T11:16:22.490Z,2.83
2023-04-10T11:18:55.774Z,3.30
2023-04-10T11:21:29.870Z,2.38
2023-04-10T11:23:57.262Z,5.00
2023-04-10T11:26:43.168Z,4.07
2023-04-10T11:29:15.719Z,3.03
2023-04-10T11:31:45.099Z,3.17
2023-04-10T11:34:12.884Z,4.00
2023-04-10T11:36:42.813Z,2.92
2023-04-10T11:39:18.531Z,3.65
2023-04-10T11:41:51.651Z,3.00
2023-04-10T11:44:26.482Z,2.85
2023-04-10T11:46:54.002Z,3.50
2023-04-10T11:49:24.705Z,2.67
2023-04-10T11:51:52.471Z,3.10
2023-04-10T11:54:21.564Z,2.78
2023-04-10T11:57:09.834Z,3.00
2023-04-10T11:59:36.824Z,2.90
2023-04-10T12:02:14.865Z,3.33
2023-04-10T12:04:44.210Z,2.50
2023-04-10T12:07:11.789Z,2.20
2023-04-10T12:09:38.951Z,2.20
2023-04-10T12:12:08.226Z,2.50
2023-04-10T12:14:36.934Z,3.53
2023-04-10T12:17:05.592Z,4.00
2023-04-10T12:19:34.244Z,2.22
2023-04-10T12:22:02.892Z,2.47
2023-04-10T12:24:50.050Z,1.83
2023-04-10T12:27:27.925Z,1.90
2023-04-10T12:29:57.399Z,1.88
2023-04-10T12:32:27.277Z,3.22
2023-04-10T12:35:01.391Z,1.92
2023-04-10T12:37:54.416Z,1.60
2023-04-10T12:40:21.599Z,1.83
2023-04-10T12:42:48.652Z,1.88
2023-04-10T12:45:15.939Z,2.65
2023-04-10T12:47:54.074Z,2.42
2023-04-10T12:50:21.548Z,1.85
2023-04-10T12:53:04.998Z,3.28
2023-04-10T12:55:33.265Z,1.90
2023-04-10T12:58:20.353Z,1.98
2023-04-10T13:00:48.390Z,1.65
2023-04-10T13:03:15.801Z,1.77
2023-04-10T13:05:44.547Z,2.35
2023-04-10T13:08:11.561Z,1.70
2023-04-10T13:10:38.893Z,1.38
2023-04-10T13:13:07.173Z,3.20
2023-04-10T13:15:34.920Z,1.67
2023-04-10T13:18:03.716Z,1.35
2023-04-10T13:20:34.170Z,3.20
2023-04-10T13:23:02.804Z,1.08
2023-04-10T13:25:37.180Z,1.08
2023-04-10T13:28:09.991Z,0.93
2023-04-10T13:30:41.569Z,2.30
2023-04-10T13:33:09.613Z,1.65
2023-04-10T13:35:36.704Z,10.27
2023-04-10T13:38:04.028Z,1.48
2023-04-10T13:40:31.174Z,2.00
2023-04-10T13:42:58.238Z,1.48
2023-04-10T13:45:25.374Z,3.55
2023-04-10T13:47:52.515Z,2.22
2023-04-10T13:50:20.239Z,1.67
2023-04-10T13:52:47.191Z,1.92
2023-04-10T13:55:14.145Z,1.20
2023-04-10T13:57:41.895Z,2.17
2023-04-10T14:00:10.327Z,3.10
2023-04-10T14:02:40.271Z,1.83
2023-04-10T14:05:07.955Z,2.05
2023-04-10T14:07:35.060Z,2.65
2023-04-10T14:10:02.681Z,1.83
2023-04-10T14:12:29.660Z,3.13
2023-04-10T14:14:56.915Z,2.50
2023-04-10T14:17:24.266Z,2.08
2023-04-10T14:19:52.371Z,1.23
2023-04-10T14:22:19.618Z,2.15
2023-04-10T14:24:46.731Z,1.40
2023-04-10T14:27:13.879Z,3.25
2023-04-10T14:29:50.494Z,2.03
2023-04-10T14:32:21.593Z,1.88
2023-04-10T14:34:48.710Z,2.25
2023-04-10T14:37:15.793Z,2.13
2023-04-10T14:39:46.518Z,2.22
2023-04-10T14:42:13.459Z,1.98
2023-04-10T14:44:40.577Z,2.67
2023-04-10T14:47:08.037Z,1.20
2023-04-10T14:49:35.050Z,3.70
2023-04-10T14:52:01.991Z,1.55
2023-04-10T14:54:28.956Z,1.40
2023-04-10T14:56:57.279Z,1.20
2023-04-10T14:59:24.407Z,2.28
2023-04-10T15:01:53.923Z,0.98
2023-04-10T15:04:21.213Z,1.27
2023-04-10T15:06:48.171Z,1.55
2023-04-10T15:09:15.133Z,0.90
2023-04-10T15:11:42.193Z,1.40
2023-04-10T15:14:09.192Z,2.25
2023-04-10T15:16:36.366Z,1.42
2023-04-10T15:19:03.384Z,2.22
2023-04-10T15:21:31.220Z,1.05
2023-04-10T15:23:58.225Z,1.75
2023-04-10T15:26:25.327Z,1.85
2023-04-10T15:28:52.888Z,2.67
2023-04-10T15:31:23.744Z,0.82
2023-04-10T15:33:52.312Z,1.90
2023-04-10T15:36:19.445Z,8.15
2023-04-10T15:38:48.141Z,2.25
2023-04-10T15:41:16.763Z,1.90
2023-04-10T15:43:43.682Z,0.90
2023-04-10T15:46:10.828Z,1.02
2023-04-10T15:48:38.208Z,1.95
2023-04-10T15:51:06.629Z,1.67
2023-04-10T15:53:34.658Z,2.22
2023-04-10T15:56:04.274Z,1.70
2023-04-10T15:58:31.195Z,1.27
2023-04-10T16:00:58.118Z,1.20
2023-04-10T16:03:28.590Z,1.70
2023-04-10T16:08:26.176Z,2.05
2023-04-10T16:10:53.834Z,1.10
2023-04-10T16:13:20.898Z,2.60
2023-04-10T16:15:49.036Z,1.88
2023-04-10T16:18:16.104Z,1.85
2023-04-10T16:20:43.616Z,1.70
2023-04-10T16:23:10.814Z,1.60
2023-04-10T16:25:37.957Z,2.22
2023-04-10T16:28:07.795Z,1.10
2023-04-10T16:30:35.966Z,1.40
2023-04-10T16:33:04.290Z,1.77
2023-04-10T16:35:31.969Z,1.58
2023-04-10T16:37:59.097Z,1.80
2023-04-10T16:40:32.267Z,1.67
2023-04-10T16:43:02.737Z,4.68
2023-04-10T16:45:29.987Z,2.40
2023-04-10T16:47:57.226Z,1.52
2023-04-10T16:50:24.390Z,1.25
2023-04-10T16:52:51.345Z,1.52
2023-04-10T16:55:18.627Z,2.30
2023-04-10T16:57:46.358Z,2.50
2023-04-10T17:00:14.026Z,1.30
2023-04-10T17:02:42.835Z,2.08
2023-04-10T17:05:11.461Z,3.40
2023-04-10T17:07:39.042Z,1.85
2023-04-10T17:10:06.549Z,1.50
2023-04-10T17:12:33.612Z,1.77
2023-04-10T17:15:00.738Z,2.13
2023-04-10T17:17:27.964Z,1.30
2023-04-10T17:19:55.710Z,2.60
2023-04-10T17:22:23.373Z,2.05
2023-04-10T17:24:50.489Z,1.92
2023-04-10T17:27:17.495Z,4.55
2023-04-10T17:29:44.566Z,1.80
2023-04-10T17:32:11.760Z,1.27
2023-04-10T17:34:39.141Z,1.60
2023-04-10T17:37:06.285Z,1.60
2023-04-10T17:39:33.418Z,1.70
2023-04-10T17:42:01.449Z,1.17
2023-04-10T17:44:28.447Z,1.98
2023-04-10T17:46:55.533Z,1.17
2023-04-10T17:49:22.623Z,2.63
2023-04-10T17:51:49.929Z,1.63
2023-04-10T17:54:17.011Z,2.17
2023-04-10T17:56:44.027Z,1.35
2023-04-10T17:59:11.242Z,2.10
2023-04-10T18:01:38.584Z,1.55
2023-04-10T18:04:06.700Z,2.10
2023-04-10T18:06:33.877Z,1.75
2023-04-10T18:09:00.891Z,1.38
2023-04-10T18:11:28.506Z,1.90
2023-04-10T18:13:55.758Z,1.75
2023-04-10T18:16:22.859Z,1.92
2023-04-10T18:18:50.119Z,2.78
2023-04-10T18:21:18.224Z,2.38
2023-04-10T18:23:49.164Z,3.47
2023-04-10T18:26:20.966Z,2.22
2023-04-10T18:28:48.165Z,1.50
2023-04-10T18:31:16.631Z,3.90
2023-04-10T18:33:43.719Z,0.98
2023-04-10T18:36:11.378Z,2.20
2023-04-10T18:38:41.171Z,3.42
2023-04-10T18:41:08.541Z,0.77
2023-04-10T18:43:38.416Z,1.77
2023-04-10T18:46:06.437Z,3.50
2023-04-10T18:48:36.060Z,1.85
2023-04-10T18:51:03.165Z,1.02
2023-04-10T18:53:30.321Z,2.10
2023-04-10T18:55:57.443Z,1.52
2023-04-10T18:58:24.630Z,1.75
2023-04-10T19:00:53.709Z,3.50
2023-04-10T19:03:20.950Z,3.38
2023-04-10T19:05:48.054Z,1.42
2023-04-10T19:08:15.754Z,1.75
2023-04-10T19:10:43.363Z,1.70
2023-04-10T19:13:12.055Z,2.20
2023-04-10T19:15:45.414Z,3.90
2023-04-10T19:18:14.124Z,3.35
2023-04-10T19:20:52.619Z,2.72
2023-04-10T19:23:21.259Z,1.52
2023-04-10T19:25:55.023Z,1.85
2023-04-10T19:28:23.501Z,5.57
2023-04-10T19:30:53.283Z,1.67
2023-04-10T19:33:20.829Z,1.80
2023-04-10T19:35:47.918Z,1.98
2023-04-10T19:38:15.006Z,3.97
2023-04-10T19:40:42.172Z,2.20
2023-04-10T19:43:09.214Z,2.45
2023-04-10T19:45:37.584Z,1.50
2023-04-10T19:48:05.161Z,1.00
2023-04-10T19:50:32.197Z,1.45
2023-04-10T19:52:59.743Z,2.28
2023-04-10T19:55:27.400Z,1.85
2023-04-10T19:57:54.948Z,3.70
2023-04-10T20:00:22.195Z,3.13
2023-04-10T20:02:49.256Z,1.58
2023-04-10T20:05:16.463Z,1.95
2023-04-10T20:07:43.575Z,1.50
2023-04-10T20:10:10.801Z,4.40
2023-04-10T20:12:38.609Z,1.73
2023-04-10T20:15:06.586Z,1.92
2023-04-10T20:17:33.699Z,1.92
2023-04-10T20:20:00.724Z,2.38
2023-04-10T20:22:29.012Z,1.40
2023-04-10T20:24:56.084Z,2.10
2023-04-10T20:27:24.670Z,1.80
2023-04-10T20:29:51.679Z,2.15
2023-04-10T20:32:19.052Z,2.63
2023-04-10T20:34:46.079Z,1.90
2023-04-10T20:37:17.268Z,2.05
2023-04-10T20:39:44.296Z,0.85
2023-04-10T20:42:11.363Z,2.20
2023-04-10T20:44:38.889Z,1.38
2023-04-10T20:47:06.683Z,1.02
2023-04-10T20:49:34.511Z,1.58
2023-04-10T20:52:01.552Z,2.10
2023-04-10T20:54:28.961Z,1.52
2023-04-10T20:57:00.169Z,1.80
2023-04-10T20:59:27.597Z,1.33
2023-04-10T21:01:54.725Z,7.60
2023-04-10T21:04:22.310Z,2.13
2023-04-10T21:06:49.750Z,2.53
2023-04-10T21:09:16.718Z,4.63
2023-04-10T21:11:44.098Z,2.33
2023-04-10T21:14:11.182Z,1.73
2023-04-10T21:16:41.338Z,1.55
2023-04-10T21:19:11.869Z,1.83
2023-04-10T21:21:39.289Z,2.38
2023-04-10T21:24:06.963Z,3.38
2023-04-10T21:26:34.085Z,1.98
2023-04-10T21:29:01.466Z,2.40
2023-04-10T21:31:29.069Z,2.25
2023-04-10T21:33:56.265Z,3.42
2023-04-10T21:36:23.404Z,1.92
2023-04-10T21:38:50.464Z,1.10
2023-04-10T21:41:17.488Z,2.97
2023-04-10T21:43:44.937Z,2.20
2023-04-10T21:46:12.016Z,1.85
2023-04-10T21:48:39.030Z,2.40
2023-04-10T21:51:06.487Z,4.78
2023-04-10T21:53:33.482Z,2.33
2023-04-10T21:56:00.553Z,1.60
2023-04-10T21:58:27.562Z,1.17
2023-04-10T22:00:54.820Z,3.13
2023-04-10T22:03:22.293Z,1.45
2023-04-10T22:05:50.643Z,1.80
2023-04-10T22:08:19.961Z,1.73
2023-04-10T22:10:48.105Z,2.80
2023-04-10T22:13:23.701Z,1.95
2023-04-10T22:15:57.595Z,2.92
2023-04-10T22:18:24.643Z,1.67
2023-04-10T22:20:51.755Z,3.63
2023-04-10T22:23:18.841Z,2.38
2023-04-10T22:25:46.016Z,5.38
2023-04-10T22:28:13.052Z,3.55
2023-04-10T22:30:40.121Z,1.48
2023-04-10T22:33:07.386Z,1.73
2023-04-10T22:35:34.486Z,2.05
2023-04-10T22:38:03.741Z,1.98
2023-04-10T22:40:31.421Z,1.48
2023-04-10T22:42:58.430Z,2.47
2023-04-10T22:45:25.882Z,3.28
2023-04-10T22:47:52.916Z,2.67
2023-04-10T22:50:21.103Z,1.70
2023-04-10T22:52:48.321Z,1.58
2023-04-10T22:55:15.795Z,3.33
2023-04-10T22:57:46.920Z,2.10
2023-04-10T23:00:14.384Z,1.63
2023-04-10T23:02:41.538Z,2.08
2023-04-10T23:05:09.283Z,5.80
2023-04-10T23:07:36.234Z,1.77
2023-04-10T23:10:03.302Z,1.80
2023-04-10T23:12:30.413Z,2.25
2023-04-10T23:14:57.932Z,1.23
2023-04-10T23:17:25.525Z,1.63
2023-04-10T23:19:53.001Z,1.40
2023-04-10T23:22:20.073Z,1.13
2023-04-10T23:24:48.117Z,1.33
2023-04-10T23:27:15.221Z,1.77
2023-04-10T23:29:42.220Z,1.33
2023-04-10T23:32:09.332Z,3.70
2023-04-10T23:34:36.376Z,1.98
2023-04-10T23:37:03.426Z,3.40
2023-04-10T23:39:30.566Z,6.18
2023-04-10T23:41:57.846Z,1.15
2023-04-10T23:44:25.098Z,1.88
2023-04-10T23:46:52.223Z,1.33
2023-04-10T23:49:19.311Z,1.88
2023-04-10T23:51:46.314Z,2.25
2023-04-10T23:54:13.843Z,1.65
2023-04-10T23:56:41.448Z,2.65
2023-04-10T23:59:08.518Z,9.68
